Latest Weather Observations for Nerriga

IDN60801

Issued at 5:05 am EST Thursday 18 September 2014 (issued every 30 minutes, with the page automatically refreshed every 10 minutes)

About weather observations | Map of weather stations | Latest weather observations for NSW | Other Formats
Station Details ID: 069128 Name: NERRIGA AWS Lat: -35.11 Lon: 150.08 Height: 622.0 m
Data from the previous 72 hours. | See also: Recent months at Nerriga
Date/Time
EST
Temp
°C
App
Temp
°C
Dew
Point
Rel
Hum
%
Delta-T
°C
Wind Press
QNH
hPa
Press
MSL
hPa
Rain
since 9 am
mm
Dir
 
Spd
km/h
Gust
km/h
Spd
kts
Gust
kts
18/05:00am 4.3 0.2 -0.3 72 1.8 W 11 19 6 10 1015.9 1015.8 0.0
18/04:30am 4.5 -0.3 -0.1 72 1.8 W 15 19 8 10 1015.3 1015.2 0.0
18/04:00am 4.7 0.6 -0.1 71 1.9 WNW 11 20 6 11 1014.9 1014.9 0.0
18/03:30am 5.3 1.2 0.1 69 2.1 WNW 11 20 6 11 1014.9 1014.9 0.0
18/03:00am 5.9 0.4 0.5 68 2.2 W 19 24 10 13 1014.7 1014.7 0.0
18/02:30am 6.0 0.9 0.6 68 2.2 WNW 17 26 9 14 1014.7 1014.7 0.0
18/02:00am 5.8 1.4 0.6 69 2.1 WNW 13 17 7 9 1014.8 1014.8 0.0
18/01:30am 6.2 1.5 0.7 68 2.2 W 15 24 8 13 1014.7 1014.7 0.0
18/01:00am 6.2 0.7 0.9 69 2.2 W 19 24 10 13 1014.8 1014.8 0.0
18/12:30am 7.0 1.0 1.3 67 2.4 W 22 32 12 17 1014.6 1014.6 0.0
18/12:00am 7.5 1.2 1.4 65 2.6 W 24 32 13 17 1014.6 1014.6 0.0
 
Date/Time
EST
Temp
°C
App
Temp
°C
Dew
Point
Rel
Hum
%
Delta-T
°C
Wind Press
QNH
hPa
Press
MSL
hPa
Rain
since 9 am
mm
Dir
 
Spd
km/h
Gust
km/h
Spd
kts
Gust
kts
17/11:30pm 7.5 1.2 1.4 65 2.6 W 24 35 13 19 1014.6 1014.6 0.0
17/11:00pm 7.7 1.0 1.5 65 2.6 W 26 39 14 21 1014.6 1014.6 0.0
17/10:30pm 7.6 1.3 1.5 65 2.6 W 24 41 13 22 1014.5 1014.4 0.0
17/10:00pm 7.8 1.1 1.4 64 2.7 W 26 37 14 20 1014.4 1014.3 0.0
17/09:30pm 8.2 1.1 1.4 62 2.9 W 28 37 15 20 1014.2 1014.1 0.0
17/09:00pm 8.4 1.3 1.3 61 3.0 W 28 39 15 21 1014.1 1014.0 0.0
17/08:30pm 8.7 2.1 1.8 62 3.0 W 26 37 14 20 1013.7 1013.6 0.0
17/08:00pm 8.8 2.3 2.6 65 2.7 W 26 41 14 22 1013.4 1013.4 0.0
17/07:30pm 8.7 2.2 2.9 67 2.6 W 26 37 14 20 1013.2 1013.2 0.0
17/07:00pm 9.0 2.9 2.8 65 2.7 W 24 33 13 18 1012.9 1012.8 0.0
17/06:30pm 9.5 2.3 2.8 63 3.0 W 30 43 16 23 1012.3 1012.2 0.0
17/06:00pm 9.7 2.1 2.8 62 3.1 W 32 43 17 23 1012.1 1012.0 0.0
17/05:47pm 9.6 2.7 2.5 61 3.1 WNW 28 46 15 25 1012.2 1012.1 0.0
17/05:30pm 10.5 2.8 3.3 61 3.3 WNW 33 46 18 25 1011.9 1011.8 0.0
17/05:00pm 11.6 3.2 1.8 51 4.3 W 35 57 19 31 1011.5 1011.4 0.0
17/04:41pm 11.7 3.7 1.6 50 4.4 W 33 52 18 28 1011.4 1011.3 0.0
17/04:30pm 11.9 2.9 2.4 52 4.3 W 39 56 21 30 1011.2 1011.1 0.0
17/04:00pm 12.2 3.3 2.9 53 4.2 WNW 39 59 21 32 1010.8 1010.7 0.0
17/03:30pm 12.9 3.1 2.2 48 4.8 W 43 63 23 34 1010.3 1010.1 0.0
17/03:03pm 13.8 4.3 1.8 44 5.4 W 41 59 22 32 1010.3 1010.1 0.0
17/03:00pm 13.6 3.6 0.9 42 5.6 W 43 59 23 32 1010.2 1010.0 0.0
17/02:30pm 14.2 5.5 2.1 44 5.5 WNW 37 56 20 30 1010.0 1009.9 0.0
17/02:07pm 13.6 3.7 1.6 44 5.4 WNW 43 63 23 34 1009.9 1009.8 0.0
17/02:00pm 13.5 3.5 1.2 43 5.5 WNW 43 61 23 33 1010.0 1009.9 0.0
17/01:32pm 13.9 5.5 1.5 43 5.6 WNW 35 54 19 29 1010.3 1010.1 0.0
17/01:30pm 13.9 5.1 1.2 42 5.7 WNW 37 54 20 29 1010.2 1010.0 0.0
17/01:04pm 13.8 4.8 2.7 47 5.1 WNW 39 57 21 31 1010.2 1010.0 0.0
17/01:00pm 13.5 4.4 2.1 46 5.2 WNW 39 54 21 29 1010.2 1010.0 0.0
17/12:30pm 13.5 4.4 2.1 46 5.2 WNW 39 56 21 30 1010.3 1010.1 0.0
17/12:05pm 13.3 5.7 3.7 52 4.5 WNW 33 52 18 28 1010.7 1010.6 0.0
17/12:00pm 13.1 4.9 2.6 49 4.8 WNW 35 52 19 28 1010.7 1010.6 0.0
17/11:43am 13.7 5.6 3.2 49 4.9 WNW 35 54 19 29 1010.7 1010.6 0.0
17/11:30am 13.4 4.6 3.8 52 4.5 WNW 39 50 21 27 1010.7 1010.6 0.0
17/11:26am 13.1 4.2 2.9 50 4.7 WNW 39 50 21 27 1010.6 1010.5 0.0
17/11:01am 13.1 5.8 2.6 49 4.8 W 30 50 16 27 1011.0 1010.9 0.0
17/11:00am 13.0 5.2 1.7 46 5.1 W 32 50 17 27 1011.0 1010.9 0.0
17/10:59am 12.9 5.6 2.2 48 4.8 W 30 50 16 27 1010.9 1010.8 0.0
17/10:30am 12.4 5.5 2.8 52 4.4 W 28 39 15 21 1011.2 1011.1 0.0
17/10:00am 11.9 5.0 2.4 52 4.3 W 28 37 15 20 1011.3 1011.2 0.0
17/09:38am 11.9 5.0 2.4 52 4.3 W 28 48 15 26 1011.5 1011.4 0.0
17/09:30am 12.0 4.7 2.5 52 4.3 W 30 43 16 23 1011.9 1011.8 0.0
17/09:00am 11.1 5.0 2.7 56 3.8 W 24 37 13 20 1012.1 1012.0 0.0
17/08:30am 10.7 4.4 3.7 62 3.2 W 26 37 14 20 1012.2 1012.1 0.0
17/08:00am 10.0 4.3 5.0 71 2.3 WNW 24 35 13 19 1012.3 1012.2 0.0
17/07:30am 9.2 3.6 5.6 78 1.7 WNW 24 35 13 19 1011.9 1011.8 0.0
17/07:00am 8.7 4.2 6.0 83 1.3 WNW 19 28 10 15 1011.7 1011.6 0.0
17/06:30am 8.2 4.9 6.2 87 0.9 WNW 13 24 7 13 1011.3 1011.2 0.0
17/06:00am 7.7 4.0 6.3 91 0.7 WNW 15 20 8 11 1011.0 1010.9 0.0
17/05:30am 8.0 4.0 6.5 90 0.7 WNW 17 20 9 11 1010.8 1010.7 0.0
17/05:00am 8.1 4.5 6.6 90 0.7 WNW 15 22 8 12 1010.6 1010.5 0.0
17/04:30am 8.5 5.3 7.0 90 0.7 WNW 13 19 7 10 1010.2 1010.0 0.0
17/04:00am 8.4 4.9 7.0 91 0.7 WNW 15 20 8 11 1010.0 1009.9 0.0
17/03:30am 8.5 5.4 7.3 92 0.6 NW 13 17 7 9 1009.9 1009.8 0.0
17/03:00am 8.6 6.6 7.2 91 0.7 WNW 7 11 4 6 1009.8 1009.7 0.0
17/02:30am 8.7 6.7 7.3 91 0.7 WNW 7 13 4 7 1009.8 1009.7 0.0
17/02:00am 9.3 6.7 7.6 89 0.8 WNW 11 17 6 9 1009.8 1009.7 0.0
17/01:30am 9.7 6.3 7.8 88 0.9 WNW 15 26 8 14 1010.2 1010.0 0.0
17/01:00am 7.8 5.4 7.1 95 0.3 WNW 9 11 5 6 1010.3 1010.1 0.0
17/12:30am 8.0 5.5 6.5 90 0.7 W 9 11 5 6 1010.4 1010.2 0.0
17/12:00am 9.1 7.1 7.2 88 0.9 W 7 15 4 8 1010.3 1010.1 0.0
 
Date/Time
EST
Temp
°C
App
Temp
°C
Dew
Point
Rel
Hum
%
Delta-T
°C
Wind Press
QNH
hPa
Press
MSL
hPa
Rain
since 9 am
mm
Dir
 
Spd
km/h
Gust
km/h
Spd
kts
Gust
kts
16/11:30pm 9.2 5.3 7.2 87 1.0 WNW 17 32 9 17 1010.0 1009.9 0.0
16/11:00pm 9.2 5.3 7.0 86 1.1 WNW 17 24 9 13 1010.3 1010.1 0.0
16/10:30pm 9.7 6.6 7.3 85 1.2 WNW 13 24 7 13 1010.4 1010.2 0.0
16/10:00pm 10.2 6.0 7.3 82 1.4 W 19 30 10 16 1010.4 1010.2 0.0
16/09:30pm 10.4 4.9 7.6 83 1.4 WNW 26 39 14 21 1010.0 1009.9 0.0
16/09:00pm 10.5 5.8 7.6 82 1.4 WNW 22 32 12 17 1010.3 1010.1 0.0
16/08:30pm 10.2 6.3 6.9 80 1.6 WNW 17 26 9 14 1010.0 1009.9 0.0
16/08:00pm 11.2 5.9 6.9 75 2.1 WNW 24 37 13 20 1009.7 1009.6 0.0
16/07:30pm 11.0 5.3 6.9 76 2.0 WNW 26 37 14 20 1009.4 1009.3 0.0
16/07:00pm 11.5 5.4 6.4 71 2.5 WNW 28 41 15 22 1009.1 1009.0 0.0
16/06:30pm 11.7 5.8 5.8 67 2.8 WNW 26 41 14 22 1009.0 1008.8 0.0
16/06:00pm 12.0 6.6 6.3 68 2.8 WNW 24 30 13 16 1008.5 1008.3 0.0
16/05:39pm 12.4 6.2 6.2 66 3.0 W 28 48 15 26 1008.2 1008.1 0.0
16/05:30pm 12.6 6.1 6.6 67 3.0 W 30 44 16 24 1008.0 1007.9 0.0
16/05:00pm 13.1 8.2 6.9 66 3.1 WNW 22 33 12 18 1007.7 1007.5 0.0
16/04:30pm 13.5 6.0 6.1 61 3.6 WNW 35 52 19 28 1007.3 1007.1 0.0
16/04:23pm 13.7 6.5 6.1 60 3.7 WNW 33 52 18 28 1007.3 1007.1 0.0
16/04:00pm 13.8 8.5 6.9 63 3.5 NW 24 35 13 19 1007.6 1007.4 0.0
16/03:30pm 14.6 6.2 5.4 54 4.5 WNW 39 61 21 33 1007.3 1007.1 0.0
16/03:09pm 14.7 8.3 6.8 59 4.0 NW 30 48 16 26 1007.3 1007.1 0.0
16/03:00pm 14.9 7.9 6.2 56 4.4 WNW 32 44 17 24 1007.3 1007.1 0.0
16/02:30pm 16.7 9.2 4.4 44 6.0 WNW 33 46 18 25 1006.9 1006.7 0.0
16/02:08pm 17.3 11.0 5.9 47 5.7 WNW 28 48 15 26 1006.9 1006.7 0.0
16/02:00pm 15.9 8.7 5.2 49 5.3 WNW 32 48 17 26 1007.0 1006.8 0.0
16/01:30pm 15.5 8.4 6.2 54 4.7 WNW 33 46 18 25 1007.2 1007.0 0.0
16/01:00pm 16.4 9.6 7.1 54 4.8 WNW 32 46 17 25 1007.6 1007.4 0.0
16/12:30pm 16.3 9.3 6.2 51 5.1 NW 32 43 17 23 1007.9 1007.8 0.0
16/12:00pm 16.8 12.5 7.2 53 5.0 NNW 19 26 10 14 1008.5 1008.3 0.0
16/11:30am 16.6 13.9 9.1 61 4.0 N 13 19 7 10 1009.1 1009.0 0.0
16/11:00am 14.8 12.6 9.4 70 2.9 N 11 19 6 10 1009.7 1009.6 0.0
16/10:30am 14.8 11.5 9.6 71 2.8 NNW 17 30 9 16 1010.2 1010.0 0.0
16/10:00am 14.9 11.9 10.7 76 2.3 N 17 28 9 15 1010.2 1010.0 0.0
16/09:30am 13.2 10.1 10.2 82 1.6 N 17 24 9 13 1010.7 1010.6 0.0
16/09:00am 13.5 10.6 11.0 85 1.4 N 17 28 9 15 1010.9 1010.8 0.6
16/08:30am 13.1 10.6 11.0 87 1.1 NNE 15 22 8 12 1010.9 1010.8 0.6
16/08:00am 12.2 10.2 10.3 88 1.0 N 11 15 6 8 1011.0 1010.9 0.6
16/07:30am 11.8 9.5 10.4 91 0.7 N 13 17 7 9 1011.0 1010.9 0.6
16/07:00am 11.3 7.9 10.7 96 0.3 NE 19 24 10 13 1010.7 1010.6 0.6
16/06:30am 11.2 8.6 10.6 96 0.3 NE 15 24 8 13 1010.9 1010.8 0.6
16/06:00am 11.0 7.4 10.7 98 0.2 NE 20 32 11 17 1011.0 1010.9 0.6
16/05:30am 10.8 8.5 10.5 98 0.2 N 13 19 7 10 1011.9 1011.8 0.4
16/05:00am 11.3 7.7 10.7 96 0.3 NE 20 28 11 15 1011.4 1011.3 0.4
16/04:30am 11.1 8.9 10.8 98 0.2 NE 13 19 7 10 1012.0 1011.9 0.4
16/04:00am 10.9 9.4 10.6 98 0.2 N 9 20 5 11 1012.2 1012.1 0.4
16/03:30am 10.9 9.4 10.6 98 0.2 N 9 17 5 9 1012.2 1012.1 0.4
16/03:00am 10.8 9.3 10.5 98 0.2 NNE 9 15 5 8 1012.2 1012.1 0.4
16/02:30am 10.9 9.8 10.6 98 0.2 NNE 7 13 4 7 1012.4 1012.3 0.4
16/02:00am 10.9 9.0 10.6 98 0.2 NNE 11 19 6 10 1012.9 1012.8 0.4
16/01:30am 10.8 9.7 10.5 98 0.2 N 7 13 4 7 1013.4 1013.4 0.4
16/01:00am 10.7 9.2 10.4 98 0.2 NE 9 13 5 7 1013.4 1013.4 0.4
16/12:30am 10.9 9.0 10.6 98 0.2 NE 11 15 6 8 1013.4 1013.4 0.4
16/12:00am 10.9 10.4 10.6 98 0.2 NNE 4 7 2 4 1014.1 1014.0 0.4
 
Date/Time
EST
Temp
°C
App
Temp
°C
Dew
Point
Rel
Hum
%
Delta-T
°C
Wind Press
QNH
hPa
Press
MSL
hPa
Rain
since 9 am
mm
Dir
 
Spd
km/h
Gust
km/h
Spd
kts
Gust
kts
15/11:30pm 10.7 9.7 10.4 98 0.2 NNE 6 9 3 5 1014.7 1014.7 0.2
15/11:00pm 10.8 9.7 10.5 98 0.2 NNE 7 11 4 6 1015.3 1015.2 0.2
15/10:30pm 10.9 9.4 10.6 98 0.2 NNE 9 13 5 7 1015.7 1015.6 0.2
15/10:00pm 11.3 9.8 10.7 96 0.3 NNE 9 15 5 8 1015.9 1015.8 0.0
15/09:30pm 10.9 9.8 10.6 98 0.2 NE 7 11 4 6 1016.0 1016.0 0.0
15/09:00pm 11.1 9.7 10.8 98 0.2 ENE 9 15 5 8 1015.9 1015.8 0.0
15/08:30pm 10.8 9.3 10.5 98 0.2 ENE 9 13 5 7 1016.0 1016.0 0.0
15/08:00pm 10.8 9.7 10.5 98 0.2 ENE 7 11 4 6 1016.0 1016.0 0.0
15/07:30pm 10.9 8.6 10.4 97 0.3 ENE 13 17 7 9 1015.8 1015.7 0.0
15/07:00pm 10.9 7.7 10.1 95 0.4 E 17 24 9 13 1015.5 1015.4 0.0
15/06:30pm 11.4 8.6 10.0 91 0.7 E 15 20 8 11 1015.3 1015.2 0.0
15/06:00pm 12.0 8.8 9.9 87 1.1 E 17 22 9 12 1015.1 1015.1 0.0
15/05:30pm 13.0 9.4 10.0 82 1.6 ENE 19 22 10 12 1014.9 1014.9 0.0
15/05:00pm 13.8 10.7 10.2 79 1.9 E 17 22 9 12 1014.7 1014.7 0.0
15/04:30pm 14.1 10.3 9.9 76 2.2 E 20 26 11 14 1014.6 1014.6 0.0
15/04:00pm 15.6 12.7 9.5 67 3.3 E 15 20 8 11 1014.6 1014.6 0.0
15/03:30pm 16.3 13.2 8.8 61 4.0 E 15 20 8 11 1014.7 1014.7 0.0
15/03:00pm 17.5 15.3 5.4 45 6.0 W 6 11 3 6 1014.9 1014.9 0.0
15/02:30pm 17.2 15.2 6.1 48 5.6 W 6 9 3 5 1014.9 1014.9 0.0
15/02:00pm 16.2 13.8 4.3 45 5.8 W 6 13 3 7 1015.3 1015.2 0.0
15/01:30pm 16.7 14.8 5.0 46 5.8 W 4 7 2 4 1015.6 1015.5 0.0
15/01:00pm 15.6 13.1 4.9 49 5.2 W 7 11 4 6 1016.0 1016.0 0.0
15/12:30pm 15.6 13.3 5.5 51 5.0 WSW 7 15 4 8 1016.5 1016.5 0.0
15/12:00pm 15.2 13.4 7.0 58 4.2 N 6 13 3 7 1016.8 1016.8 0.0
15/11:30am 14.3 13.0 7.8 65 3.3 N 4 9 2 5 1017.2 1017.1 0.0
15/11:00am 13.3 11.6 8.4 72 2.5 NNE 7 13 4 7 1017.6 1017.6 0.0
15/10:30am 12.4 10.5 7.5 72 2.5 NNE 7 11 4 6 1018.1 1018.1 0.0
15/10:00am 11.5 10.3 8.0 79 1.8 NNE 4 7 2 4 1018.2 1018.2 0.0
15/09:30am 9.6 8.0 7.9 89 0.8 NNE 6 7 3 4 1018.4 1018.4 0.0
15/09:00am 9.0 7.5 8.6 97 0.2 NNE 6 7 3 4 1018.8 1018.8 0.2
15/08:30am 8.8 7.3 8.5 98 0.2 NNE 6 7 3 4 1018.8 1018.8 0.2
15/08:00am 8.3 6.5 8.0 98 0.1 NNE 7 11 4 6 1018.9 1018.9 0.2
15/07:30am 8.4 6.3 8.1 98 0.1 NE 9 11 5 6 1018.4 1018.4 0.2
15/07:00am 8.3 6.6 8.2 99 0.0 E 7 9 4 5 1018.4 1018.4 0.2
15/06:30am 8.0 6.3 7.7 98 0.1 E 6 9 3 5 1018.4 1018.4 0.2
15/06:00am 7.9 7.3 7.6 98 0.1 CALM 0 4 0 2 1018.3 1018.3 0.2
15/05:30am 8.0 6.3 7.7 98 0.1 E 6 9 3 5 1018.3 1018.3 0.2

Other Formats:

Comma delimited format used in spreadsheet applications
http://www.bom.gov.au/fwo/IDN60801/IDN60801.94943.axf

JavaScript Object Notation format (JSON) in row-major order
http://www.bom.gov.au/fwo/IDN60801/IDN60801.94943.json